createdAt,value
2022-11-24T00:01:54.267Z,86.56
2022-11-24T00:05:37.907Z,86.49
2022-11-24T00:09:00.207Z,86.64
2022-11-24T00:12:37.716Z,86.41
2022-11-24T00:16:21.238Z,86.19
2022-11-24T00:20:11.976Z,86.15
2022-11-24T00:23:34.377Z,85.96
2022-11-24T00:27:11.005Z,85.72
2022-11-24T00:30:48.848Z,85.62
2022-11-24T00:34:46.645Z,85.59
2022-11-24T00:38:08.582Z,85.41
2022-11-24T00:41:46.635Z,85.37
2022-11-24T00:45:23.858Z,85.65
2022-11-24T00:49:01.806Z,85.86
2022-11-24T00:52:39.499Z,86.48
2022-11-24T00:56:16.993Z,86.64
2022-11-24T00:59:54.716Z,86.19
2022-11-24T01:03:52.151Z,86.21
2022-11-24T01:07:14.223Z,85.92
2022-11-24T01:11:25.624Z,85.81
2022-11-24T01:15:07.417Z,85.82
2022-11-24T01:18:49.139Z,85.80
2022-11-24T01:22:10.552Z,86.07
2022-11-24T01:25:48.349Z,86.52
2022-11-24T01:29:26.328Z,86.70
2022-11-24T01:33:03.624Z,86.77
2022-11-24T01:36:41.045Z,86.30
2022-11-24T01:40:19.204Z,85.98
2022-11-24T01:43:57.825Z,85.60
2022-11-24T01:47:41.067Z,85.06
2022-11-24T01:51:17.434Z,85.08
2022-11-24T01:54:54.799Z,84.87
2022-11-24T01:58:32.439Z,84.77
2022-11-24T02:02:27.273Z,85.06
2022-11-24T02:06:10.647Z,85.04
2022-11-24T02:09:47.860Z,85.21
2022-11-24T02:13:10.082Z,85.42
2022-11-24T02:17:07.946Z,85.50
2022-11-24T02:20:48.489Z,85.36
2022-11-24T02:24:24.255Z,85.59
2022-11-24T02:27:53.515Z,85.55
2022-11-24T02:31:50.942Z,85.51
2022-11-24T02:35:13.716Z,85.61
2022-11-24T02:38:50.452Z,85.53
2022-11-24T02:42:32.800Z,85.31
2022-11-24T02:46:25.086Z,85.45
2022-11-24T02:50:06.438Z,85.66
2022-11-24T02:53:46.933Z,86.02
2022-11-24T02:57:08.969Z,85.91
2022-11-24T03:01:05.304Z,86.01
2022-11-24T03:04:27.382Z,86.07
2022-11-24T03:08:23.878Z,85.95
2022-11-24T03:11:45.651Z,86.15
2022-11-24T03:15:42.165Z,86.24
2022-11-24T03:19:22.596Z,85.90
2022-11-24T03:22:44.138Z,85.66
2022-11-24T03:26:24.136Z,86.13
2022-11-24T03:29:59.480Z,86.21
2022-11-24T03:33:56.199Z,86.28
2022-11-24T03:37:17.760Z,86.20
2022-11-24T03:40:55.655Z,86.09
2022-11-24T03:44:33.363Z,85.84
2022-11-24T03:48:10.837Z,85.87
2022-11-24T03:52:08.597Z,85.67
2022-11-24T03:55:30.421Z,85.58
2022-11-24T03:59:26.827Z,85.47
2022-11-24T04:02:48.784Z,85.63
2022-11-24T04:06:45.441Z,85.64
2022-11-24T04:10:07.994Z,85.98
2022-11-24T04:13:47.494Z,86.23
2022-11-24T04:17:22.837Z,86.48
2022-11-24T04:21:00.398Z,86.44
2022-11-24T04:24:38.302Z,86.35
2022-11-24T04:28:34.728Z,86.14
2022-11-24T04:31:56.841Z,86.13
2022-11-24T04:35:35.696Z,85.91
2022-11-24T04:39:25.873Z,85.79
2022-11-24T04:42:56.881Z,85.66
2022-11-24T04:46:28.373Z,85.63
2022-11-24T04:50:25.011Z,85.68
2022-11-24T04:53:49.272Z,85.95
2022-11-24T04:57:26.836Z,86.55
2022-11-24T05:01:06.254Z,86.55
2022-11-24T05:04:40.499Z,86.72
2022-11-24T05:08:17.774Z,86.47
2022-11-24T05:11:55.287Z,86.23
2022-11-24T05:15:33.492Z,86.36
2022-11-24T05:19:10.655Z,86.16
2022-11-24T05:23:07.938Z,86.06
2022-11-24T05:26:29.485Z,85.98
2022-11-24T05:30:08.318Z,86.02
2022-11-24T05:33:45.759Z,86.09
2022-11-24T05:37:22.453Z,86.62
2022-11-24T05:41:04.849Z,86.74
2022-11-24T05:44:57.072Z,86.76
2022-11-24T05:48:19.233Z,86.91
2022-11-24T05:52:16.659Z,86.75
2022-11-24T05:55:57.224Z,86.46
2022-11-24T05:59:20.040Z,86.28
2022-11-24T06:03:01.210Z,86.27
2022-11-24T06:06:34.440Z,86.22
2022-11-24T06:10:30.918Z,86.49
2022-11-24T06:13:52.634Z,86.51
2022-11-24T06:17:54.465Z,86.53
2022-11-24T06:21:35.276Z,86.48
2022-11-24T06:24:56.847Z,86.34
2022-11-24T06:28:34.940Z,86.06
2022-11-24T06:32:31.142Z,86.05
2022-11-24T06:35:53.553Z,86.21
2022-11-24T06:39:30.056Z,86.43
2022-11-24T06:43:07.727Z,86.52
2022-11-24T06:47:04.442Z,86.75
2022-11-24T06:50:44.757Z,87.00
2022-11-24T06:54:07.061Z,87.04
2022-11-24T06:57:44.157Z,87.07
2022-11-24T07:01:40.666Z,86.79
2022-11-24T07:05:21.208Z,86.86
2022-11-24T07:08:43.673Z,86.60
2022-11-24T07:12:39.653Z,86.64
2022-11-24T07:16:12.372Z,86.70
2022-11-24T07:19:58.273Z,86.96
2022-11-24T07:23:19.810Z,87.10
2022-11-24T07:27:16.388Z,87.56
2022-11-24T07:30:37.967Z,87.55
2022-11-24T07:34:34.821Z,87.40
2022-11-24T07:38:15.690Z,87.19
2022-11-24T07:41:59.131Z,87.26
2022-11-24T07:45:21.491Z,87.26
2022-11-24T07:48:58.464Z,87.20
2022-11-24T07:52:37.291Z,87.35
2022-11-24T07:56:33.041Z,87.68
2022-11-24T08:00:14.000Z,87.71
2022-11-24T08:03:36.007Z,88.00
2022-11-24T08:07:13.630Z,88.19
2022-11-24T08:11:12.790Z,88.26
2022-11-24T08:14:53.820Z,88.22
2022-11-24T08:18:36.698Z,88.13
2022-11-24T08:22:17.303Z,88.17
2022-11-24T08:26:04.239Z,88.10
2022-11-24T08:29:31.013Z,88.20
2022-11-24T08:33:03.935Z,88.44
2022-11-24T08:37:01.997Z,88.70
2022-11-24T08:40:42.462Z,88.73
2022-11-24T08:44:23.232Z,88.68
2022-11-24T08:48:04.484Z,88.50
2022-11-24T08:51:27.201Z,88.39
2022-11-24T08:55:03.932Z,88.21
2022-11-24T08:58:41.881Z,88.12
2022-11-24T09:02:18.838Z,88.30
2022-11-24T09:05:56.646Z,88.52
2022-11-24T09:09:34.648Z,88.74
2022-11-24T09:13:12.489Z,88.81
2022-11-24T09:17:08.467Z,88.78
2022-11-24T09:20:49.495Z,88.89
2022-11-24T09:24:11.260Z,88.96
2022-11-24T09:27:49.421Z,89.04
2022-11-24T09:31:29.594Z,89.03
2022-11-24T09:35:24.192Z,88.85
2022-11-24T09:38:45.704Z,88.74
2022-11-24T09:42:57.316Z,88.60
2022-11-24T09:46:26.809Z,88.67
2022-11-24T09:50:10.683Z,88.74
2022-11-24T09:54:00.804Z,88.93
2022-11-24T09:57:44.576Z,89.10
2022-11-24T10:01:20.214Z,88.90
2022-11-24T10:04:46.594Z,89.22
2022-11-24T10:08:43.719Z,88.96
2022-11-24T10:12:37.419Z,88.93
2022-11-24T10:16:27.723Z,88.63
2022-11-24T10:20:16.842Z,88.51
2022-11-24T10:24:16.359Z,88.67
2022-11-24T10:27:49.387Z,88.75
2022-11-24T10:31:29.437Z,88.96
2022-11-24T10:35:20.857Z,89.08
2022-11-24T10:38:59.960Z,89.24
2022-11-24T10:42:28.415Z,89.18
2022-11-24T10:46:11.542Z,89.19
2022-11-24T10:49:37.812Z,89.12
2022-11-24T10:53:26.770Z,89.19
2022-11-24T10:57:27.399Z,89.14
2022-11-24T11:01:13.896Z,89.15
2022-11-24T11:04:54.500Z,89.54
2022-11-24T11:08:28.964Z,89.21
2022-11-24T11:11:53.989Z,89.27
2022-11-24T11:15:50.267Z,89.15
2022-11-24T11:19:58.492Z,88.85
2022-11-24T11:23:28.097Z,88.97
2022-11-24T11:27:17.018Z,88.93
2022-11-24T11:34:29.807Z,88.98
2022-11-24T11:38:19.981Z,89.17
2022-11-24T11:41:46.229Z,89.07
2022-11-24T11:45:44.520Z,88.94
2022-11-24T11:49:11.420Z,89.05
2022-11-24T11:53:04.523Z,89.20
2022-11-24T11:56:35.144Z,89.25
2022-11-24T12:00:24.090Z,89.43
2022-11-24T12:04:43.721Z,89.48
2022-11-24T12:08:19.219Z,89.38
2022-11-24T12:12:00.868Z,89.52
2022-11-24T12:15:28.177Z,89.70
2022-11-24T12:19:05.616Z,89.56
2022-11-24T12:23:00.257Z,90.01
2022-11-24T12:26:48.411Z,89.74
2022-11-24T12:30:16.141Z,89.84
2022-11-24T12:34:01.526Z,89.74
2022-11-24T12:38:01.915Z,90.01
2022-11-24T12:41:45.486Z,89.72
2022-11-24T12:45:28.448Z,90.24
2022-11-24T12:49:30.923Z,90.18
2022-11-24T12:53:16.530Z,90.40
2022-11-24T12:56:41.676Z,90.33
2022-11-24T13:00:27.498Z,90.69
2022-11-24T13:04:01.239Z,91.00
2022-11-24T13:07:47.587Z,90.89
2022-11-24T13:11:22.462Z,90.71
2022-11-24T13:14:49.035Z,90.92
2022-11-24T13:18:58.298Z,90.76
2022-11-24T13:22:36.311Z,90.97
2022-11-24T13:26:29.843Z,91.16
2022-11-24T13:30:32.451Z,91.34
2022-11-24T13:34:38.114Z,91.66
2022-11-24T13:37:59.869Z,91.42
2022-11-24T13:41:37.297Z,91.67
2022-11-24T13:45:41.291Z,91.70
2022-11-24T13:49:22.153Z,91.56
2022-11-24T13:53:13.242Z,91.47
2022-11-24T13:56:34.663Z,91.76
2022-11-24T14:00:58.436Z,91.28
2022-11-24T14:04:30.917Z,91.31
2022-11-24T14:07:58.482Z,91.24
2022-11-24T14:11:36.125Z,91.10
2022-11-24T14:15:25.744Z,91.21
2022-11-24T14:19:10.681Z,91.18
2022-11-24T14:22:39.401Z,91.26
2022-11-24T14:26:36.495Z,90.95
2022-11-24T14:30:05.688Z,91.07
2022-11-24T14:33:36.430Z,91.13
2022-11-24T14:37:13.285Z,91.19
2022-11-24T14:40:55.615Z,90.96
2022-11-24T14:44:52.111Z,90.92
2022-11-24T14:48:16.862Z,90.94
2022-11-24T14:51:58.587Z,90.77
2022-11-24T14:55:31.237Z,90.53
2022-11-24T14:59:24.840Z,90.41
2022-11-24T15:02:49.721Z,90.03
2022-11-24T15:06:25.009Z,90.06
2022-11-24T15:10:05.175Z,90.10
2022-11-24T15:13:49.940Z,90.08
2022-11-24T15:17:21.912Z,90.07
2022-11-24T15:20:56.599Z,90.07
2022-11-24T15:24:33.638Z,90.28
2022-11-24T15:28:12.038Z,90.33
2022-11-24T15:31:52.647Z,90.24
2022-11-24T15:35:30.440Z,90.10
2022-11-24T15:39:04.215Z,89.89
2022-11-24T15:42:42.855Z,89.80
2022-11-24T15:46:19.545Z,89.82
2022-11-24T15:49:57.235Z,89.65
2022-11-24T15:54:00.693Z,89.70
2022-11-24T15:57:23.013Z,89.72
2022-11-24T16:01:00.734Z,89.89
2022-11-24T16:04:57.084Z,90.01
2022-11-24T16:08:37.549Z,90.09
2022-11-24T16:11:58.883Z,90.26
2022-11-24T16:15:37.720Z,89.84
2022-11-24T16:19:15.867Z,89.67
2022-11-24T16:22:51.993Z,89.37
2022-11-24T16:26:29.620Z,89.57
2022-11-24T16:30:26.148Z,89.32
2022-11-24T16:33:47.712Z,89.30
2022-11-24T16:37:25.392Z,89.26
2022-11-24T16:41:22.099Z,89.54
2022-11-24T16:44:44.045Z,89.55
2022-11-24T16:48:21.555Z,89.86
2022-11-24T16:52:00.736Z,89.82
2022-11-24T16:55:57.220Z,89.88
2022-11-24T16:59:19.140Z,89.91
2022-11-24T17:02:56.905Z,89.79
2022-11-24T17:06:35.232Z,89.48
2022-11-24T17:10:12.139Z,89.33
2022-11-24T17:14:09.845Z,89.45
2022-11-24T17:17:31.220Z,89.35
2022-11-24T17:21:27.954Z,89.28
2022-11-24T17:24:49.602Z,89.30
2022-11-24T17:28:27.321Z,89.35
2022-11-24T17:32:05.199Z,89.28
2022-11-24T17:35:42.653Z,89.45
2022-11-24T17:39:24.744Z,89.91
2022-11-24T17:42:59.610Z,89.90
2022-11-24T17:46:37.237Z,89.95
2022-11-24T17:50:32.378Z,90.00
2022-11-24T17:53:55.237Z,89.88
2022-11-24T18:16:07.627Z,89.47
2022-11-24T18:19:42.834Z,89.56
2022-11-24T18:23:47.453Z,89.62
2022-11-24T18:27:40.799Z,89.82
2022-11-24T18:31:04.805Z,89.57
2022-11-24T18:34:40.228Z,89.43
2022-11-24T18:38:18.082Z,89.49
2022-11-24T18:41:55.873Z,89.49
2022-11-24T18:45:39.873Z,89.65
2022-11-24T18:49:10.762Z,89.88
2022-11-24T18:52:48.721Z,90.14
2022-11-24T18:56:26.724Z,90.27
2022-11-24T19:00:15.865Z,90.09
2022-11-24T19:04:02.311Z,90.01
2022-11-24T19:07:24.186Z,89.91
2022-11-24T19:11:24.350Z,89.66
2022-11-24T19:14:54.611Z,89.24
2022-11-24T19:18:29.958Z,89.39
2022-11-24T19:22:23.315Z,89.37
2022-11-24T19:26:05.629Z,89.84
2022-11-24T19:29:27.353Z,89.88
2022-11-24T19:33:08.144Z,89.84
2022-11-24T19:36:43.337Z,89.53
2022-11-24T19:40:39.199Z,89.24
2022-11-24T19:44:00.911Z,88.87
2022-11-24T19:47:57.711Z,88.87
2022-11-24T19:51:30.546Z,89.00
2022-11-24T19:55:16.113Z,89.10
2022-11-24T19:58:38.591Z,89.43
2022-11-24T20:02:17.005Z,89.38
2022-11-24T20:05:56.455Z,89.36
2022-11-24T20:09:30.824Z,89.09
2022-11-24T20:13:27.241Z,88.73
2022-11-24T20:17:07.992Z,88.58
2022-11-24T20:20:51.040Z,88.81
2022-11-24T20:24:16.559Z,89.19
2022-11-24T20:28:09.293Z,89.46
2022-11-24T20:31:52.720Z,89.57
2022-11-24T20:35:33.309Z,89.59
2022-11-24T20:38:56.035Z,89.32
2022-11-24T20:42:34.313Z,88.94
2022-11-24T20:46:14.008Z,89.06
2022-11-24T20:50:06.832Z,89.00
2022-11-24T20:53:53.121Z,89.25
2022-11-24T20:57:33.379Z,89.29
2022-11-24T21:00:54.861Z,89.26
2022-11-24T21:04:35.143Z,89.27
2022-11-24T21:08:32.183Z,88.97
2022-11-24T21:11:54.782Z,88.85
2022-11-24T21:15:31.662Z,89.04
2022-11-24T21:19:14.908Z,89.15
2022-11-24T21:28:28.537Z,89.40
2022-11-24T21:32:05.573Z,89.36
2022-11-24T21:36:04.149Z,89.04
2022-11-24T21:39:44.956Z,88.96
2022-11-24T21:43:28.038Z,88.94
2022-11-24T21:46:55.701Z,88.94
2022-11-24T21:50:27.776Z,89.13
2022-11-24T21:54:24.149Z,89.30
2022-11-24T21:57:46.527Z,89.64
2022-11-24T22:01:28.739Z,89.79
2022-11-24T22:05:01.436Z,90.07
2022-11-24T22:08:39.123Z,89.83
2022-11-24T22:12:35.540Z,89.49
2022-11-24T22:16:02.497Z,89.06
2022-11-24T22:19:53.855Z,89.22
2022-11-24T22:23:15.324Z,89.16
2022-11-24T22:26:54.812Z,89.24
2022-11-24T22:30:30.564Z,89.49
2022-11-24T22:34:08.735Z,89.83
2022-11-24T22:37:46.016Z,89.44
2022-11-24T22:41:24.703Z,89.25
2022-11-24T22:45:01.459Z,89.33
2022-11-24T22:48:40.534Z,89.35
2022-11-24T22:52:17.751Z,89.32
2022-11-24T22:55:54.738Z,89.46
2022-11-24T22:59:50.955Z,89.77
2022-11-24T23:03:36.270Z,89.98
2022-11-24T23:06:58.503Z,90.25
2022-11-24T23:10:36.278Z,90.08
2022-11-24T23:14:32.290Z,89.77
2022-11-24T23:17:54.290Z,89.61
2022-11-24T23:21:33.628Z,89.87
2022-11-24T23:25:27.969Z,89.83
2022-11-24T23:29:09.966Z,89.70
2022-11-24T23:32:31.628Z,89.77
2022-11-24T23:36:11.592Z,89.91
2022-11-24T23:39:49.641Z,89.75
2022-11-24T23:43:24.849Z,89.71
2022-11-24T23:47:21.274Z,89.90
2022-11-24T23:50:42.785Z,89.98
2022-11-24T23:54:39.354Z,90.08
2022-11-24T23:58:00.978Z,90.11
